sensor_id;sensor_type;location;lat;lon;timestamp;pressure;altitude;pressure_sealevel;temperature
79089;BMP280;68489;50.286;9.452;2023-05-20T00:00:53;97851.53;;;10.76
79089;BMP280;68489;50.286;9.452;2023-05-20T00:03:19;97850.38;;;10.77
79089;BMP280;68489;50.286;9.452;2023-05-20T00:05:45;97852.19;;;10.80
79089;BMP280;68489;50.286;9.452;2023-05-20T00:08:10;97857.00;;;10.85
79089;BMP280;68489;50.286;9.452;2023-05-20T00:10:35;97851.25;;;10.87
79089;BMP280;68489;50.286;9.452;2023-05-20T00:13:01;97846.25;;;10.89
79089;BMP280;68489;50.286;9.452;2023-05-20T00:15:26;97841.69;;;10.90
79089;BMP280;68489;50.286;9.452;2023-05-20T00:17:51;97853.59;;;10.85
79089;BMP280;68489;50.286;9.452;2023-05-20T00:20:17;97840.69;;;10.83
79089;BMP280;68489;50.286;9.452;2023-05-20T00:22:42;97831.25;;;10.82
79089;BMP280;68489;50.286;9.452;2023-05-20T00:25:08;97835.81;;;10.82
79089;BMP280;68489;50.286;9.452;2023-05-20T00:27:34;97843.88;;;10.78
79089;BMP280;68489;50.286;9.452;2023-05-20T00:29:59;97843.53;;;10.76
79089;BMP280;68489;50.286;9.452;2023-05-20T00:32:24;97847.06;;;10.73
79089;BMP280;68489;50.286;9.452;2023-05-20T00:34:57;97842.59;;;10.70
79089;BMP280;68489;50.286;9.452;2023-05-20T00:37:23;97843.75;;;10.69
79089;BMP280;68489;50.286;9.452;2023-05-20T00:39:48;97834.72;;;10.67
79089;BMP280;68489;50.286;9.452;2023-05-20T00:42:27;97834.59;;;10.70
79089;BMP280;68489;50.286;9.452;2023-05-20T00:44:53;97835.34;;;10.71
79089;BMP280;68489;50.286;9.452;2023-05-20T00:47:23;97830.59;;;10.78
79089;BMP280;68489;50.286;9.452;2023-05-20T00:49:50;97824.31;;;10.72
79089;BMP280;68489;50.286;9.452;2023-05-20T00:52:17;97831.09;;;10.73
79089;BMP280;68489;50.286;9.452;2023-05-20T00:54:42;97827.38;;;10.71
79089;BMP280;68489;50.286;9.452;2023-05-20T00:57:09;97822.81;;;10.71
79089;BMP280;68489;50.286;9.452;2023-05-20T00:59:36;97821.22;;;10.74
79089;BMP280;68489;50.286;9.452;2023-05-20T01:02:03;97817.19;;;10.82
79089;BMP280;68489;50.286;9.452;2023-05-20T01:04:29;97818.47;;;10.90
79089;BMP280;68489;50.286;9.452;2023-05-20T01:06:54;97821.03;;;10.94
79089;BMP280;68489;50.286;9.452;2023-05-20T01:09:20;97815.84;;;11.03
79089;BMP280;68489;50.286;9.452;2023-05-20T01:11:58;97823.63;;;11.10
79089;BMP280;68489;50.286;9.452;2023-05-20T01:14:26;97827.88;;;11.20
79089;BMP280;68489;50.286;9.452;2023-05-20T01:16:54;97821.16;;;11.28
79089;BMP280;68489;50.286;9.452;2023-05-20T01:19:30;97824.91;;;11.31
79089;BMP280;68489;50.286;9.452;2023-05-20T01:21:59;97824.03;;;11.34
79089;BMP280;68489;50.286;9.452;2023-05-20T01:24:25;97812.44;;;11.41
79089;BMP280;68489;50.286;9.452;2023-05-20T01:26:50;97814.25;;;11.44
79089;BMP280;68489;50.286;9.452;2023-05-20T01:29:15;97810.41;;;11.57
79089;BMP280;68489;50.286;9.452;2023-05-20T01:31:43;97813.16;;;11.54
79089;BMP280;68489;50.286;9.452;2023-05-20T01:34:08;97806.66;;;11.55
79089;BMP280;68489;50.286;9.452;2023-05-20T01:36:34;97806.41;;;11.62
79089;BMP280;68489;50.286;9.452;2023-05-20T01:39:00;97809.84;;;11.62
79089;BMP280;68489;50.286;9.452;2023-05-20T01:41:27;97808.75;;;11.73
79089;BMP280;68489;50.286;9.452;2023-05-20T01:43:54;97805.75;;;11.83
79089;BMP280;68489;50.286;9.452;2023-05-20T01:46:20;97808.34;;;11.74
79089;BMP280;68489;50.286;9.452;2023-05-20T01:48:45;97806.94;;;11.82
79089;BMP280;68489;50.286;9.452;2023-05-20T01:51:10;97803.03;;;11.74
79089;BMP280;68489;50.286;9.452;2023-05-20T01:53:35;97809.69;;;11.79
79089;BMP280;68489;50.286;9.452;2023-05-20T01:56:00;97801.84;;;11.75
79089;BMP280;68489;50.286;9.452;2023-05-20T01:58:26;97799.38;;;11.81
79089;BMP280;68489;50.286;9.452;2023-05-20T02:00:51;97798.94;;;11.82
79089;BMP280;68489;50.286;9.452;2023-05-20T02:03:16;97794.16;;;11.77
79089;BMP280;68489;50.286;9.452;2023-05-20T02:05:42;97798.47;;;11.84
79089;BMP280;68489;50.286;9.452;2023-05-20T02:08:07;97792.97;;;11.78
79089;BMP280;68489;50.286;9.452;2023-05-20T02:10:33;97793.72;;;11.79
79089;BMP280;68489;50.286;9.452;2023-05-20T02:12:58;97791.03;;;11.79
79089;BMP280;68489;50.286;9.452;2023-05-20T02:15:23;97796.81;;;11.77
79089;BMP280;68489;50.286;9.452;2023-05-20T02:17:48;97785.31;;;11.80
79089;BMP280;68489;50.286;9.452;2023-05-20T02:20:14;97794.88;;;11.78
79089;BMP280;68489;50.286;9.452;2023-05-20T02:22:39;97795.22;;;11.80
79089;BMP280;68489;50.286;9.452;2023-05-20T02:25:05;97797.31;;;11.85
79089;BMP280;68489;50.286;9.452;2023-05-20T02:27:30;97792.31;;;11.87
79089;BMP280;68489;50.286;9.452;2023-05-20T02:29:56;97784.31;;;11.87
79089;BMP280;68489;50.286;9.452;2023-05-20T02:32:21;97792.44;;;11.83
79089;BMP280;68489;50.286;9.452;2023-05-20T02:34:51;97792.75;;;11.85
79089;BMP280;68489;50.286;9.452;2023-05-20T02:37:17;97787.41;;;11.85
79089;BMP280;68489;50.286;9.452;2023-05-20T02:39:43;97787.31;;;11.89
79089;BMP280;68489;50.286;9.452;2023-05-20T02:42:08;97783.56;;;11.86
79089;BMP280;68489;50.286;9.452;2023-05-20T02:44:33;97775.16;;;11.88
79089;BMP280;68489;50.286;9.452;2023-05-20T02:46:58;97780.50;;;11.88
79089;BMP280;68489;50.286;9.452;2023-05-20T02:49:24;97777.56;;;11.95
79089;BMP280;68489;50.286;9.452;2023-05-20T02:51:49;97779.16;;;11.93
79089;BMP280;68489;50.286;9.452;2023-05-20T02:54:14;97776.75;;;11.98
79089;BMP280;68489;50.286;9.452;2023-05-20T02:56:39;97776.28;;;12.00
79089;BMP280;68489;50.286;9.452;2023-05-20T02:59:05;97772.13;;;11.99
79089;BMP280;68489;50.286;9.452;2023-05-20T03:01:31;97774.59;;;11.93
79089;BMP280;68489;50.286;9.452;2023-05-20T03:03:59;97770.53;;;12.01
79089;BMP280;68489;50.286;9.452;2023-05-20T03:06:24;97763.69;;;12.00
79089;BMP280;68489;50.286;9.452;2023-05-20T03:08:50;97769.00;;;12.00
79089;BMP280;68489;50.286;9.452;2023-05-20T03:11:15;97771.09;;;11.96
79089;BMP280;68489;50.286;9.452;2023-05-20T03:13:40;97772.00;;;12.02
79089;BMP280;68489;50.286;9.452;2023-05-20T03:16:06;97774.50;;;11.97
79089;BMP280;68489;50.286;9.452;2023-05-20T03:18:31;97765.44;;;11.94
79089;BMP280;68489;50.286;9.452;2023-05-20T03:20:57;97767.34;;;11.94
79089;BMP280;68489;50.286;9.452;2023-05-20T03:23:22;97762.34;;;11.96
79089;BMP280;68489;50.286;9.452;2023-05-20T03:25:47;97772.22;;;11.95
79089;BMP280;68489;50.286;9.452;2023-05-20T03:28:13;97769.81;;;11.88
79089;BMP280;68489;50.286;9.452;2023-05-20T03:30:38;97762.91;;;11.91
79089;BMP280;68489;50.286;9.452;2023-05-20T03:33:03;97772.56;;;11.97
79089;BMP280;68489;50.286;9.452;2023-05-20T03:35:29;97763.09;;;11.96
79089;BMP280;68489;50.286;9.452;2023-05-20T03:37:55;97771.09;;;11.96
79089;BMP280;68489;50.286;9.452;2023-05-20T03:40:20;97765.59;;;12.00
79089;BMP280;68489;50.286;9.452;2023-05-20T03:42:46;97759.97;;;11.98
79089;BMP280;68489;50.286;9.452;2023-05-20T03:45:11;97760.75;;;11.98
79089;BMP280;68489;50.286;9.452;2023-05-20T03:47:36;97769.16;;;11.97
79089;BMP280;68489;50.286;9.452;2023-05-20T03:50:02;97759.69;;;11.96
79089;BMP280;68489;50.286;9.452;2023-05-20T03:52:27;97759.88;;;12.01
79089;BMP280;68489;50.286;9.452;2023-05-20T03:54:53;97754.09;;;12.03
79089;BMP280;68489;50.286;9.452;2023-05-20T03:57:18;97759.97;;;11.98
79089;BMP280;68489;50.286;9.452;2023-05-20T03:59:43;97760.28;;;12.00
79089;BMP280;68489;50.286;9.452;2023-05-20T04:02:09;97759.69;;;11.96
79089;BMP280;68489;50.286;9.452;2023-05-20T04:04:34;97761.66;;;12.04
79089;BMP280;68489;50.286;9.452;2023-05-20T04:07:00;97762.84;;;12.03
79089;BMP280;68489;50.286;9.452;2023-05-20T04:09:26;97765.81;;;12.05
79089;BMP280;68489;50.286;9.452;2023-05-20T04:11:51;97765.19;;;12.01
79089;BMP280;68489;50.286;9.452;2023-05-20T04:14:16;97763.59;;;12.04
79089;BMP280;68489;50.286;9.452;2023-05-20T04:16:42;97756.81;;;12.12
79089;BMP280;68489;50.286;9.452;2023-05-20T04:19:09;97766.44;;;12.09
79089;BMP280;68489;50.286;9.452;2023-05-20T04:21:34;97768.94;;;12.04
79089;BMP280;68489;50.286;9.452;2023-05-20T04:24:00;97767.47;;;12.12
79089;BMP280;68489;50.286;9.452;2023-05-20T04:26:25;97769.28;;;12.15
79089;BMP280;68489;50.286;9.452;2023-05-20T04:28:50;97773.59;;;12.12
79089;BMP280;68489;50.286;9.452;2023-05-20T04:31:16;97772.25;;;12.17
79089;BMP280;68489;50.286;9.452;2023-05-20T04:33:41;97779.16;;;12.27
79089;BMP280;68489;50.286;9.452;2023-05-20T04:36:09;97770.53;;;12.23
79089;BMP280;68489;50.286;9.452;2023-05-20T04:38:36;97776.78;;;12.29
79089;BMP280;68489;50.286;9.452;2023-05-20T04:41:01;97771.63;;;12.35
79089;BMP280;68489;50.286;9.452;2023-05-20T04:43:27;97769.41;;;12.33
79089;BMP280;68489;50.286;9.452;2023-05-20T04:45:56;97772.06;;;12.33
79089;BMP280;68489;50.286;9.452;2023-05-20T04:48:22;97770.16;;;12.34
79089;BMP280;68489;50.286;9.452;2023-05-20T04:50:48;97768.28;;;12.44
79089;BMP280;68489;50.286;9.452;2023-05-20T04:53:14;97774.00;;;12.55
79089;BMP280;68489;50.286;9.452;2023-05-20T04:55:39;97767.75;;;12.58
79089;BMP280;68489;50.286;9.452;2023-05-20T04:58:05;97771.91;;;12.59
79089;BMP280;68489;50.286;9.452;2023-05-20T05:00:32;97769.16;;;12.72
79089;BMP280;68489;50.286;9.452;2023-05-20T05:02:57;97769.47;;;12.74
79089;BMP280;68489;50.286;9.452;2023-05-20T05:05:22;97771.41;;;12.73
79089;BMP280;68489;50.286;9.452;2023-05-20T05:07:47;97770.25;;;12.83
79089;BMP280;68489;50.286;9.452;2023-05-20T05:10:13;97766.69;;;12.86
79089;BMP280;68489;50.286;9.452;2023-05-20T05:12:39;97764.28;;;12.70
79089;BMP280;68489;50.286;9.452;2023-05-20T05:15:05;97767.13;;;12.76
79089;BMP280;68489;50.286;9.452;2023-05-20T05:17:30;97761.66;;;12.79
79089;BMP280;68489;50.286;9.452;2023-05-20T05:19:56;97758.06;;;12.73
79089;BMP280;68489;50.286;9.452;2023-05-20T05:22:21;97763.56;;;12.79
79089;BMP280;68489;50.286;9.452;2023-05-20T05:24:46;97761.50;;;12.83
79089;BMP280;68489;50.286;9.452;2023-05-20T05:27:12;97751.75;;;12.89
79089;BMP280;68489;50.286;9.452;2023-05-20T05:29:37;97754.16;;;13.05
79089;BMP280;68489;50.286;9.452;2023-05-20T05:32:02;97759.56;;;13.14
79089;BMP280;68489;50.286;9.452;2023-05-20T05:34:27;97749.78;;;13.21
79089;BMP280;68489;50.286;9.452;2023-05-20T05:36:53;97756.44;;;13.25
79089;BMP280;68489;50.286;9.452;2023-05-20T05:39:18;97756.75;;;13.27
79089;BMP280;68489;50.286;9.452;2023-05-20T05:41:43;97750.09;;;13.41
79089;BMP280;68489;50.286;9.452;2023-05-20T05:44:08;97752.16;;;13.46
79089;BMP280;68489;50.286;9.452;2023-05-20T05:46:34;97747.28;;;13.54
79089;BMP280;68489;50.286;9.452;2023-05-20T05:48:59;97750.28;;;13.56
79089;BMP280;68489;50.286;9.452;2023-05-20T05:51:26;97748.00;;;13.63
79089;BMP280;68489;50.286;9.452;2023-05-20T05:53:53;97748.47;;;13.71
79089;BMP280;68489;50.286;9.452;2023-05-20T05:56:18;97749.81;;;13.76
79089;BMP280;68489;50.286;9.452;2023-05-20T05:58:43;97742.25;;;13.83
79089;BMP280;68489;50.286;9.452;2023-05-20T06:01:09;97749.94;;;13.90
79089;BMP280;68489;50.286;9.452;2023-05-20T06:03:34;97750.53;;;13.85
79089;BMP280;68489;50.286;9.452;2023-05-20T06:06:00;97744.47;;;13.85
79089;BMP280;68489;50.286;9.452;2023-05-20T06:08:25;97747.44;;;13.87
79089;BMP280;68489;50.286;9.452;2023-05-20T06:10:50;97733.16;;;13.90
79089;BMP280;68489;50.286;9.452;2023-05-20T06:13:16;97734.38;;;13.80
79089;BMP280;68489;50.286;9.452;2023-05-20T06:15:41;97742.53;;;13.76
79089;BMP280;68489;50.286;9.452;2023-05-20T06:18:07;97730.66;;;13.68
79089;BMP280;68489;50.286;9.452;2023-05-20T06:20:32;97733.19;;;13.72
79089;BMP280;68489;50.286;9.452;2023-05-20T06:22:57;97733.03;;;13.75
79089;BMP280;68489;50.286;9.452;2023-05-20T06:25:23;97738.66;;;13.77
79089;BMP280;68489;50.286;9.452;2023-05-20T06:27:49;97731.84;;;13.76
79089;BMP280;68489;50.286;9.452;2023-05-20T06:30:14;97739.53;;;14.02
79089;BMP280;68489;50.286;9.452;2023-05-20T06:32:40;97733.00;;;14.12
79089;BMP280;68489;50.286;9.452;2023-05-20T06:35:05;97738.47;;;14.17
79089;BMP280;68489;50.286;9.452;2023-05-20T06:37:30;97738.69;;;14.38
79089;BMP280;68489;50.286;9.452;2023-05-20T06:39:55;97729.88;;;14.56
79089;BMP280;68489;50.286;9.452;2023-05-20T06:42:21;97729.16;;;14.46
79089;BMP280;68489;50.286;9.452;2023-05-20T06:44:46;97733.91;;;14.51
79089;BMP280;68489;50.286;9.452;2023-05-20T06:47:16;97731.19;;;14.60
79089;BMP280;68489;50.286;9.452;2023-05-20T06:49:42;97726.84;;;14.72
79089;BMP280;68489;50.286;9.452;2023-05-20T06:52:07;97722.75;;;14.86
79089;BMP280;68489;50.286;9.452;2023-05-20T06:54:33;97725.78;;;14.79
79089;BMP280;68489;50.286;9.452;2023-05-20T06:57:01;97720.00;;;14.71
79089;BMP280;68489;50.286;9.452;2023-05-20T06:59:26;97720.78;;;14.62
79089;BMP280;68489;50.286;9.452;2023-05-20T07:01:51;97725.69;;;14.64
79089;BMP280;68489;50.286;9.452;2023-05-20T07:04:16;97723.66;;;14.83
79089;BMP280;68489;50.286;9.452;2023-05-20T07:06:42;97718.44;;;14.88
79089;BMP280;68489;50.286;9.452;2023-05-20T07:09:07;97716.16;;;14.96
79089;BMP280;68489;50.286;9.452;2023-05-20T07:11:32;97719.19;;;14.89
79089;BMP280;68489;50.286;9.452;2023-05-20T07:13:57;97721.22;;;14.94
79089;BMP280;68489;50.286;9.452;2023-05-20T07:16:23;97723.56;;;15.01
79089;BMP280;68489;50.286;9.452;2023-05-20T07:18:48;97713.53;;;15.11
79089;BMP280;68489;50.286;9.452;2023-05-20T07:21:13;97714.59;;;15.28
79089;BMP280;68489;50.286;9.452;2023-05-20T07:23:38;97714.19;;;15.44
79089;BMP280;68489;50.286;9.452;2023-05-20T07:26:04;97706.44;;;15.46
79089;BMP280;68489;50.286;9.452;2023-05-20T07:28:29;97708.50;;;15.28
79089;BMP280;68489;50.286;9.452;2023-05-20T07:30:54;97706.25;;;15.26
79089;BMP280;68489;50.286;9.452;2023-05-20T07:33:21;97715.53;;;15.25
79089;BMP280;68489;50.286;9.452;2023-05-20T07:35:46;97717.69;;;15.12
79089;BMP280;68489;50.286;9.452;2023-05-20T07:38:11;97713.13;;;15.03
79089;BMP280;68489;50.286;9.452;2023-05-20T07:40:38;97715.31;;;14.90
79089;BMP280;68489;50.286;9.452;2023-05-20T07:43:05;97716.50;;;14.89
79089;BMP280;68489;50.286;9.452;2023-05-20T07:45:31;97703.91;;;14.80
79089;BMP280;68489;50.286;9.452;2023-05-20T07:47:56;97705.88;;;14.70
79089;BMP280;68489;50.286;9.452;2023-05-20T07:50:22;97705.91;;;14.61
79089;BMP280;68489;50.286;9.452;2023-05-20T07:52:47;97699.09;;;14.60
79089;BMP280;68489;50.286;9.452;2023-05-20T07:55:12;97711.19;;;14.46
79089;BMP280;68489;50.286;9.452;2023-05-20T07:57:37;97708.84;;;14.39
79089;BMP280;68489;50.286;9.452;2023-05-20T08:00:03;97706.16;;;14.39
79089;BMP280;68489;50.286;9.452;2023-05-20T08:02:28;97701.84;;;14.33
79089;BMP280;68489;50.286;9.452;2023-05-20T08:04:53;97709.28;;;14.38
79089;BMP280;68489;50.286;9.452;2023-05-20T08:07:19;97706.19;;;14.30
79089;BMP280;68489;50.286;9.452;2023-05-20T08:09:44;97702.31;;;14.31
79089;BMP280;68489;50.286;9.452;2023-05-20T08:12:09;97704.84;;;14.35
79089;BMP280;68489;50.286;9.452;2023-05-20T08:14:35;97702.16;;;14.35
79089;BMP280;68489;50.286;9.452;2023-05-20T08:17:00;97699.81;;;14.28
79089;BMP280;68489;50.286;9.452;2023-05-20T08:19:25;97697.44;;;14.30
79089;BMP280;68489;50.286;9.452;2023-05-20T08:21:50;97699.50;;;14.35
79089;BMP280;68489;50.286;9.452;2023-05-20T08:24:16;97707.97;;;14.33
79089;BMP280;68489;50.286;9.452;2023-05-20T08:26:41;97699.81;;;14.28
79089;BMP280;68489;50.286;9.452;2023-05-20T08:29:06;97697.25;;;14.42
79089;BMP280;68489;50.286;9.452;2023-05-20T08:31:32;97699.00;;;14.45
79089;BMP280;68489;50.286;9.452;2023-05-20T08:33:57;97701.25;;;14.71
79089;BMP280;68489;50.286;9.452;2023-05-20T08:36:23;97696.19;;;14.73
79089;BMP280;68489;50.286;9.452;2023-05-20T08:38:48;97687.25;;;14.76
79089;BMP280;68489;50.286;9.452;2023-05-20T08:41:14;97692.53;;;14.94
79089;BMP280;68489;50.286;9.452;2023-05-20T08:43:39;97687.78;;;15.13
79089;BMP280;68489;50.286;9.452;2023-05-20T08:46:05;97688.34;;;15.32
79089;BMP280;68489;50.286;9.452;2023-05-20T08:48:32;97681.00;;;15.42
79089;BMP280;68489;50.286;9.452;2023-05-20T08:50:57;97675.44;;;15.45
79089;BMP280;68489;50.286;9.452;2023-05-20T08:53:24;97686.38;;;15.57
79089;BMP280;68489;50.286;9.452;2023-05-20T08:55:54;97679.78;;;15.43
79089;BMP280;68489;50.286;9.452;2023-05-20T08:58:21;97680.56;;;15.58
79089;BMP280;68489;50.286;9.452;2023-05-20T09:00:47;97686.16;;;15.45
79089;BMP280;68489;50.286;9.452;2023-05-20T09:03:12;97676.66;;;15.44
79089;BMP280;68489;50.286;9.452;2023-05-20T09:05:38;97677.94;;;15.49
79089;BMP280;68489;50.286;9.452;2023-05-20T09:08:10;97677.59;;;15.41
79089;BMP280;68489;50.286;9.452;2023-05-20T09:10:37;97678.59;;;15.44
79089;BMP280;68489;50.286;9.452;2023-05-20T09:13:04;97683.19;;;15.29
79089;BMP280;68489;50.286;9.452;2023-05-20T09:15:33;97680.41;;;15.38
79089;BMP280;68489;50.286;9.452;2023-05-20T09:18:03;97684.91;;;15.41
79089;BMP280;68489;50.286;9.452;2023-05-20T09:20:29;97683.50;;;15.31
79089;BMP280;68489;50.286;9.452;2023-05-20T09:23:00;97687.81;;;15.28
79089;BMP280;68489;50.286;9.452;2023-05-20T09:25:26;97674.75;;;15.21
79089;BMP280;68489;50.286;9.452;2023-05-20T09:27:51;97672.84;;;15.21
79089;BMP280;68489;50.286;9.452;2023-05-20T09:30:20;97683.94;;;15.29
79089;BMP280;68489;50.286;9.452;2023-05-20T09:32:56;97681.09;;;15.47
79089;BMP280;68489;50.286;9.452;2023-05-20T09:35:23;97680.91;;;15.51
79089;BMP280;68489;50.286;9.452;2023-05-20T09:37:54;97674.38;;;15.67
79089;BMP280;68489;50.286;9.452;2023-05-20T09:40:22;97678.34;;;15.86
79089;BMP280;68489;50.286;9.452;2023-05-20T09:42:53;97676.28;;;15.96
79089;BMP280;68489;50.286;9.452;2023-05-20T09:45:21;97687.66;;;16.06
79089;BMP280;68489;50.286;9.452;2023-05-20T09:47:49;97671.97;;;16.34
79089;BMP280;68489;50.286;9.452;2023-05-20T09:50:14;97667.78;;;16.47
79089;BMP280;68489;50.286;9.452;2023-05-20T09:52:42;97662.91;;;16.66
79089;BMP280;68489;50.286;9.452;2023-05-20T09:55:08;97680.34;;;16.56
79089;BMP280;68489;50.286;9.452;2023-05-20T09:57:37;97674.88;;;16.65
79089;BMP280;68489;50.286;9.452;2023-05-20T10:00:04;97669.81;;;16.73
79089;BMP280;68489;50.286;9.452;2023-05-20T10:02:32;97672.50;;;16.73
79089;BMP280;68489;50.286;9.452;2023-05-20T10:04:58;97671.94;;;16.48
79089;BMP280;68489;50.286;9.452;2023-05-20T10:13:24;97660.22;;;16.66
79089;BMP280;68489;50.286;9.452;2023-05-20T10:21:28;97669.03;;;17.33
79089;BMP280;68489;50.286;9.452;2023-05-20T10:23:53;97664.44;;;17.40
79089;BMP280;68489;50.286;9.452;2023-05-20T10:26:18;97656.84;;;17.38
79089;BMP280;68489;50.286;9.452;2023-05-20T10:28:45;97658.16;;;17.22
79089;BMP280;68489;50.286;9.452;2023-05-20T10:31:21;97652.28;;;17.44
79089;BMP280;68489;50.286;9.452;2023-05-20T10:33:47;97652.63;;;17.57
79089;BMP280;68489;50.286;9.452;2023-05-20T10:36:26;97657.22;;;17.83
79089;BMP280;68489;50.286;9.452;2023-05-20T10:38:56;97663.34;;;18.74
79089;BMP280;68489;50.286;9.452;2023-05-20T10:41:26;97653.88;;;19.07
79089;BMP280;68489;50.286;9.452;2023-05-20T10:43:59;97647.56;;;19.38
79089;BMP280;68489;50.286;9.452;2023-05-20T10:46:24;97635.28;;;19.71
79089;BMP280;68489;50.286;9.452;2023-05-20T10:48:50;97640.94;;;19.67
79089;BMP280;68489;50.286;9.452;2023-05-20T10:51:15;97640.69;;;19.15
79089;BMP280;68489;50.286;9.452;2023-05-20T10:53:44;97646.44;;;18.80
79089;BMP280;68489;50.286;9.452;2023-05-20T10:56:21;97639.47;;;19.38
79089;BMP280;68489;50.286;9.452;2023-05-20T10:58:47;97635.53;;;19.62
79089;BMP280;68489;50.286;9.452;2023-05-20T11:01:12;97636.03;;;19.77
79089;BMP280;68489;50.286;9.452;2023-05-20T11:03:39;97632.28;;;20.08
79089;BMP280;68489;50.286;9.452;2023-05-20T11:06:17;97628.63;;;20.58
79089;BMP280;68489;50.286;9.452;2023-05-20T11:08:43;97630.03;;;20.12
79089;BMP280;68489;50.286;9.452;2023-05-20T11:11:12;97634.25;;;19.96
79089;BMP280;68489;50.286;9.452;2023-05-20T11:13:38;97628.78;;;20.24
79089;BMP280;68489;50.286;9.452;2023-05-20T11:16:04;97631.53;;;20.13
79089;BMP280;68489;50.286;9.452;2023-05-20T11:18:29;97627.91;;;19.66
79089;BMP280;68489;50.286;9.452;2023-05-20T11:20:56;97622.03;;;19.73
79089;BMP280;68489;50.286;9.452;2023-05-20T11:23:22;97637.50;;;19.67
79089;BMP280;68489;50.286;9.452;2023-05-20T11:25:51;97622.47;;;20.68
79089;BMP280;68489;50.286;9.452;2023-05-20T11:28:18;97615.19;;;20.47
79089;BMP280;68489;50.286;9.452;2023-05-20T11:30:44;97615.47;;;20.90
79089;BMP280;68489;50.286;9.452;2023-05-20T11:33:16;97616.59;;;20.59
79089;BMP280;68489;50.286;9.452;2023-05-20T11:35:47;97624.28;;;20.90
79089;BMP280;68489;50.286;9.452;2023-05-20T11:38:12;97612.00;;;21.19
79089;BMP280;68489;50.286;9.452;2023-05-20T11:40:45;97615.91;;;21.24
79089;BMP280;68489;50.286;9.452;2023-05-20T11:43:12;97612.94;;;20.92
79089;BMP280;68489;50.286;9.452;2023-05-20T11:45:52;97605.56;;;21.52
79089;BMP280;68489;50.286;9.452;2023-05-20T11:48:18;97603.91;;;22.17
79089;BMP280;68489;50.286;9.452;2023-05-20T11:50:45;97606.06;;;23.07
79089;BMP280;68489;50.286;9.452;2023-05-20T11:53:16;97613.88;;;23.56
79089;BMP280;68489;50.286;9.452;2023-05-20T11:55:54;97600.19;;;23.62
79089;BMP280;68489;50.286;9.452;2023-05-20T11:58:30;97602.34;;;24.37
79089;BMP280;68489;50.286;9.452;2023-05-20T12:00:55;97602.31;;;25.13
79089;BMP280;68489;50.286;9.452;2023-05-20T12:03:21;97590.59;;;25.98
79089;BMP280;68489;50.286;9.452;2023-05-20T12:05:47;97584.13;;;27.15
79089;BMP280;68489;50.286;9.452;2023-05-20T12:08:14;97595.34;;;27.34
79089;BMP280;68489;50.286;9.452;2023-05-20T12:10:40;97586.28;;;27.80
79089;BMP280;68489;50.286;9.452;2023-05-20T12:13:05;97587.41;;;27.21
79089;BMP280;68489;50.286;9.452;2023-05-20T12:15:34;97583.16;;;28.16
79089;BMP280;68489;50.286;9.452;2023-05-20T12:18:00;97594.25;;;27.45
79089;BMP280;68489;50.286;9.452;2023-05-20T12:20:26;97571.31;;;27.81
79089;BMP280;68489;50.286;9.452;2023-05-20T12:22:51;97590.88;;;27.06
79089;BMP280;68489;50.286;9.452;2023-05-20T12:25:18;97596.25;;;25.27
79089;BMP280;68489;50.286;9.452;2023-05-20T12:27:45;97591.06;;;24.46
79089;BMP280;68489;50.286;9.452;2023-05-20T12:30:12;97595.69;;;23.24
79089;BMP280;68489;50.286;9.452;2023-05-20T12:32:38;97587.44;;;22.85
79089;BMP280;68489;50.286;9.452;2023-05-20T12:35:04;97594.00;;;23.21
79089;BMP280;68489;50.286;9.452;2023-05-20T12:37:29;97604.88;;;22.89
79089;BMP280;68489;50.286;9.452;2023-05-20T12:39:55;97595.72;;;22.92
79089;BMP280;68489;50.286;9.452;2023-05-20T12:42:20;97588.28;;;23.25
79089;BMP280;68489;50.286;9.452;2023-05-20T12:44:45;97577.91;;;23.23
79089;BMP280;68489;50.286;9.452;2023-05-20T12:47:11;97581.94;;;22.39
79089;BMP280;68489;50.286;9.452;2023-05-20T12:49:36;97583.50;;;22.86
79089;BMP280;68489;50.286;9.452;2023-05-20T12:52:01;97570.56;;;24.66
79089;BMP280;68489;50.286;9.452;2023-05-20T12:54:26;97584.09;;;24.79
79089;BMP280;68489;50.286;9.452;2023-05-20T12:56:53;97564.84;;;24.56
79089;BMP280;68489;50.286;9.452;2023-05-20T12:59:19;97572.41;;;23.42
79089;BMP280;68489;50.286;9.452;2023-05-20T13:01:44;97578.59;;;23.56
79089;BMP280;68489;50.286;9.452;2023-05-20T13:04:10;97583.47;;;24.94
79089;BMP280;68489;50.286;9.452;2023-05-20T13:06:35;97577.88;;;25.20
79089;BMP280;68489;50.286;9.452;2023-05-20T13:09:00;97577.31;;;24.52
79089;BMP280;68489;50.286;9.452;2023-05-20T13:11:26;97574.66;;;24.59
79089;BMP280;68489;50.286;9.452;2023-05-20T13:13:54;97578.84;;;26.26
79089;BMP280;68489;50.286;9.452;2023-05-20T13:16:19;97566.66;;;26.88
79089;BMP280;68489;50.286;9.452;2023-05-20T13:18:44;97565.25;;;27.90
79089;BMP280;68489;50.286;9.452;2023-05-20T13:21:09;97563.78;;;29.06
79089;BMP280;68489;50.286;9.452;2023-05-20T13:23:35;97564.59;;;29.16
79089;BMP280;68489;50.286;9.452;2023-05-20T13:26:01;97556.44;;;30.52
79089;BMP280;68489;50.286;9.452;2023-05-20T13:28:26;97556.53;;;29.89
79089;BMP280;68489;50.286;9.452;2023-05-20T13:30:52;97558.47;;;29.69
79089;BMP280;68489;50.286;9.452;2023-05-20T13:33:17;97552.50;;;29.90
79089;BMP280;68489;50.286;9.452;2023-05-20T13:35:42;97552.72;;;29.48
79089;BMP280;68489;50.286;9.452;2023-05-20T13:38:07;97539.63;;;30.19
79089;BMP280;68489;50.286;9.452;2023-05-20T13:40:34;97542.28;;;30.00
79089;BMP280;68489;50.286;9.452;2023-05-20T13:42:59;97549.94;;;30.38
79089;BMP280;68489;50.286;9.452;2023-05-20T13:45:24;97545.50;;;29.25
79089;BMP280;68489;50.286;9.452;2023-05-20T13:47:50;97542.38;;;29.12
79089;BMP280;68489;50.286;9.452;2023-05-20T13:50:15;97528.06;;;30.21
79089;BMP280;68489;50.286;9.452;2023-05-20T13:52:40;97529.44;;;30.97
79089;BMP280;68489;50.286;9.452;2023-05-20T13:55:06;97539.47;;;30.17
79089;BMP280;68489;50.286;9.452;2023-05-20T13:57:31;97538.72;;;30.07
79089;BMP280;68489;50.286;9.452;2023-05-20T13:59:57;97536.13;;;29.73
79089;BMP280;68489;50.286;9.452;2023-05-20T14:02:22;97530.28;;;29.59
79089;BMP280;68489;50.286;9.452;2023-05-20T14:04:47;97530.44;;;29.98
79089;BMP280;68489;50.286;9.452;2023-05-20T14:07:13;97515.41;;;29.89
79089;BMP280;68489;50.286;9.452;2023-05-20T14:09:38;97530.75;;;30.86
79089;BMP280;68489;50.286;9.452;2023-05-20T14:12:04;97511.16;;;30.15
79089;BMP280;68489;50.286;9.452;2023-05-20T14:14:29;97509.78;;;30.91